Portsmouth, Virginia - KPWR: 24-hour Summary Portsmouth Weather Records Service - Portsmouth, Virginia



LOCAL CLIMATOLOGICAL DATA: This Month's Data
[updated each morning between 7AM and 9AM]
Station: Portsmouth, Virginia - KPWR Latitude: 36° 48' 04" N Longitude: 76° 19' 37" W Elevation (ground): 13 ft. Time Zone: Eastern

BE SURE TO RELOAD/REFRESH THIS SCREEN FOR DAILY UPDATES BY RIGHT-CLICKING THE BACKGROUND The data in this frame and listed below are final adjusted site data for the time period.

-------------------------------------------------------------------------------------------------------------------------------------------
WEDNESDAY		Temp	Hi	Low	Out	Dew	Wind	Wind	Wind	Hi	Hi	Wind	Heat	THW			Rain	Heat	Cool	In 	In	In 	In 	Wind	Wind	ISS 	Arc.
Date		Time	Out	Temp	Temp	Hum	Pt.	Speed	Dir	Run	Speed	Dir	Chill	Index	Index	Bar  	Rain	Rate	D-D 	D-D 	Temp	Hum	Dew	Heat	Samp	Tx 	Recept	Int.
08/01/18	1:00 a	78.1	78.3	78.0	97	77.2	0.0	SSW	0.00	4.0	SSW	78.1	84.0	84.0	30.045	0.00	0.00	0.000	0.546	86.4	35	55.5	85.7	1404	1	100.0	60
08/01/18	2:00 a	77.6	78.1	77.6	97	76.7	0.0	SW	0.00	4.0	SW	77.6	83.0	83.0	30.045	0.00	0.00	0.000	0.525	85.2	36	55.2	84.6	1405	1	100.0	60
08/01/18	3:00 a	77.4	77.6	77.3	98	76.8	0.0	SW	0.00	10.0	SW	77.4	82.8	82.8	30.048	0.00	0.00	0.000	0.517	85.5	37	56.3	85.1	1405	1	100.0	60
08/01/18	4:00 a	77.3	77.4	77.2	98	76.7	0.0	SSW	0.00	4.0	SSW	77.3	82.5	82.5	30.050	0.00	0.00	0.000	0.513	85.2	36	55.2	84.6	1405	1	100.0	60
08/01/18	5:00 a	77.5	77.5	77.3	98	76.9	0.0	SW	0.00	4.0	SW	77.5	83.0	83.0	30.053	0.00	0.00	0.000	0.521	84.3	36	54.4	83.8	1405	1	100.0	60
08/01/18	6:00 a	77.5	77.7	77.5	96	76.3	0.0	SW	0.00	4.0	SW	77.5	82.6	82.6	30.066	0.00	0.00	0.000	0.521	84.6	37	55.5	84.2	1405	1	100.0	60
08/01/18	7:00 a	77.7	77.7	77.4	97	76.8	0.0	---	0.00	0.0	---	77.7	83.2	83.2	30.075	0.00	0.00	0.000	0.529	85.1	38	56.6	84.8	1405	1	100.0	60
08/01/18	8:00 a	79.4	79.4	77.7	95	77.8	0.0	SW	0.00	10.0	SW	79.4	86.7	86.7	30.093	0.00	0.00	0.000	0.600	84.2	36	54.4	83.7	1404	1	100.0	60
08/01/18	9:00 a	81.7	81.7	79.4	91	78.8	0.0	SW	0.00	12.0	S	81.7	91.6	91.6	30.097	0.00	0.00	0.000	0.696	85.4	37	56.2	85.0	1405	1	100.0	60
08/01/18	10:00 a	83.6	83.7	81.7	85	78.6	0.0	SSW	0.00	21.0	S	83.6	94.9	94.9	30.099	0.00	0.00	0.000	0.775	85.5	34	53.9	84.6	1405	1	100.0	60
08/01/18	11:00 a	86.7	86.7	83.4	81	80.2	0.0	SSW	0.00	16.0	SSW	86.7	101.7	101.7	30.101	0.00	0.00	0.000	0.904	83.8	43	58.9	84.5	1405	1	100.0	60
08/01/18	12:00 p	88.2	88.3	86.7	75	79.3	0.0	SW	0.00	18.0	SW	88.2	102.2	102.2	30.092	0.00	0.00	0.000	0.967	83.6	37	54.6	83.1	1405	1	100.0	60
08/01/18	1:00 p	88.6	88.6	87.8	75	79.7	0.0	SW	0.00	13.0	SSW	88.6	103.9	103.9	30.078	0.00	0.00	0.000	0.983	85.7	37	56.4	85.3	1405	1	100.0	60
08/01/18	2:00 p	89.5	90.2	88.6	73	79.7	0.0	SSW	0.00	14.0	SSW	89.5	106.1	106.1	30.068	0.00	0.00	0.000	1.021	85.5	37	56.3	85.1	1405	1	100.0	60
08/01/18	3:00 p	84.8	89.5	84.8	87	80.5	0.0	SSW	0.00	7.0	SW	84.8	98.9	98.9	30.077	0.01	0.00	0.000	0.825	86.9	36	56.7	86.3	1405	1	100.0	60
08/01/18	4:00 p	86.0	86.0	84.1	85	81.0	0.0	S	0.00	14.0	S	86.0	101.2	101.2	30.055	0.03	0.63	0.000	0.875	86.7	38	58.1	86.6	1405	1	100.0	60
08/01/18	5:00 p	87.0	87.0	86.0	81	80.5	0.0	SSE	0.00	7.0	SE	87.0	102.8	102.8	30.067	0.00	0.00	0.000	0.917	87.6	34	55.8	86.3	1405	1	100.0	60
08/01/18	6:00 p	84.3	87.5	84.3	82	78.2	0.0	SSW	0.00	16.0	SW	84.3	95.8	95.8	30.084	0.00	0.00	0.000	0.804	86.7	36	56.6	86.2	1405	1	100.0	60
08/01/18	7:00 p	80.9	84.3	80.9	89	77.4	0.0	ESE	0.00	5.0	WSW	80.9	88.7	88.7	30.064	0.00	0.00	0.000	0.663	87.2	35	56.2	86.3	1405	1	100.0	60
08/01/18	8:00 p	80.0	80.9	80.0	91	77.1	0.0	---	0.00	0.0	---	80.0	87.1	87.1	30.075	0.00	0.00	0.000	0.625	88.5	35	57.4	87.6	1405	1	100.0	60
08/01/18	9:00 p	78.5	80.0	78.5	93	76.3	0.0	---	0.00	0.0	---	78.5	84.3	84.3	30.082	0.00	0.00	0.000	0.563	88.9	35	57.7	88.2	1405	1	100.0	60
08/01/18	10:00 p	77.6	78.5	77.6	95	76.1	0.0	---	0.00	0.0	---	77.6	82.6	82.6	30.106	0.00	0.00	0.000	0.525	86.8	35	55.9	86.0	1405	1	100.0	60
08/01/18	11:00 p	77.4	77.6	77.4	97	76.5	0.0	---	0.00	0.0	---	77.4	82.6	82.6	30.108	0.00	0.00	0.000	0.517	87.1	36	56.9	86.5	1404	1	100.0	60
08/02/18	12:00 a	77.2	77.4	77.2	97	76.3	0.0	---	0.00	0.0	---	77.2	82.2	82.2	30.116	0.00	0.00	0.000	0.508	85.3	34	53.8	84.3	1405	1	100.0	60

THURSDAY		Temp	Hi	Low	Out	Dew	Wind	Wind	Wind	Hi	Hi	Wind	Heat	THW			Rain	Heat	Cool	In 	In	In 	In 	Wind	Wind	ISS 	Arc.
Date		Time	Out	Temp	Temp	Hum	Pt.	Speed	Dir	Run	Speed	Dir	Chill	Index	Index	Bar  	Rain	Rate	D-D 	D-D 	Temp	Hum	Dew	Heat	Samp	Tx 	Recept	Int.
08/02/18	1:00 a	76.8	77.2	76.8	98	76.2	0.0	---	0.00	0.0	---	76.8	81.6	81.6	30.121	0.00	0.00	0.000	0.492	85.9	36	55.8	85.4	1403	1	100.0	60
08/02/18	2:00 a	76.4	76.8	76.4	98	75.8	0.0	---	0.00	0.0	---	76.4	80.9	80.9	30.123	0.00	0.00	0.000	0.475	86.0	36	55.9	85.5	1405	1	100.0	60
08/02/18	3:00 a	75.9	76.4	75.9	99	75.6	0.0	---	0.00	0.0	---	75.9	80.1	80.1	30.121	0.00	0.00	0.000	0.454	84.1	35	53.5	83.4	1405	1	100.0	60
08/02/18	4:00 a	75.5	75.9	75.5	99	75.2	0.0	---	0.00	0.0	---	75.5	79.5	79.5	30.117	0.00	0.00	0.000	0.438	84.6	36	54.7	84.0	1405	1	100.0	60
08/02/18	5:00 a	75.1	75.5	75.1	100	75.1	0.0	---	0.00	0.0	---	75.1	79.0	79.0	30.112	0.00	0.00	0.000	0.421	84.6	37	55.5	84.2	1405	1	100.0	60
08/02/18	6:00 a	75.0	75.1	74.9	100	75.0	0.0	---	0.00	0.0	---	75.0	78.8	78.8	30.123	0.00	0.00	0.000	0.417	84.6	37	55.5	84.2	1405	1	100.0	60
08/02/18	7:00 a	75.9	75.9	74.9	100	75.9	0.0	---	0.00	0.0	---	75.9	80.2	80.2	30.132	0.00	0.00	0.000	0.454	83.4	36	53.6	82.6	1405	1	100.0	60
08/02/18	8:00 a	78.1	78.1	75.8	100	78.1	0.0	---	0.00	0.0	---	78.1	84.6	84.6	30.130	0.00	0.00	0.000	0.546	84.4	36	54.5	83.9	1405	1	100.0	60
08/02/18	9:00 a	82.8	82.8	78.1	92	80.2	0.0	SW	0.00	15.0	SW	82.8	95.2	95.2	30.139	0.00	0.00	0.000	0.742	85.5	37	56.3	85.1	1405	1	100.0	60
08/02/18	10:00 a	85.5	85.5	82.8	87	81.2	0.0	SSE	0.00	14.0	SSE	85.5	101.0	101.0	30.132	0.00	0.00	0.000	0.854	85.9	36	55.8	85.4	1405	1	100.0	60
08/02/18	11:00 a	87.5	87.5	85.5	82	81.3	0.0	SW	0.00	7.0	SW	87.5	104.7	104.7	30.132	0.00	0.00	0.000	0.938	87.7	35	56.7	86.6	1404	1	100.0	60
08/02/18	12:00 p	88.3	88.4	87.6	82	82.1	0.0	SSE	0.00	11.0	SSE	88.3	107.5	107.5	30.120	0.01	0.00	0.000	0.971	88.5	39	60.4	88.8	1405	1	100.0	60
08/02/18	1:00 p	79.8	88.3	79.8	92	77.3	0.0	S	0.00	13.0	S	79.8	86.9	86.9	30.136	0.05	0.77	0.000	0.617	88.9	35	57.7	88.2	1406	1	100.0	60
08/02/18	2:00 p	78.6	79.8	78.6	95	77.0	0.0	SSE	0.00	10.0	SSE	78.6	84.8	84.8	30.117	0.00	0.00	0.000	0.567	87.9	37	58.4	87.3	1404	1	100.0	60
08/02/18	3:00 p	80.1	80.1	78.6	95	78.5	0.0	---	0.00	0.0	---	80.1	88.4	88.4	30.098	0.00	0.00	0.000	0.629	88.0	36	57.7	87.1	1405	1	100.0	60
08/02/18	4:00 p	84.9	84.9	80.1	87	80.6	0.0	SSE	0.00	15.0	S	84.9	99.1	99.1	30.085	0.00	0.00	0.000	0.829	87.6	36	57.3	86.8	1405	1	100.0	60
08/02/18	5:00 p	82.7	85.6	82.7	89	79.1	0.0	SSW	0.00	19.0	SSW	82.7	93.6	93.6	30.103	0.13	1.64	0.000	0.737	89.5	36	59.0	89.4	1405	1	100.0	60
08/02/18	6:00 p	78.4	82.7	78.3	95	76.8	0.0	SSW	0.00	12.0	W	78.4	84.4	84.4	30.107	0.01	0.29	0.000	0.558	87.7	35	56.7	86.6	1405	1	100.0	60
08/02/18	7:00 p	78.2	78.4	77.9	97	77.3	0.0	---	0.00	0.0	---	78.2	84.3	84.3	30.111	0.00	0.00	0.000	0.550	88.0	36	57.7	87.1	1405	1	100.0	60
08/02/18	8:00 p	77.0	78.3	77.0	95	75.5	0.0	NNW	0.00	5.0	NNW	77.0	81.5	81.5	30.120	0.00	0.00	0.000	0.500	85.6	34	54.0	84.7	1405	1	100.0	60
08/02/18	9:00 p	75.7	77.0	75.7	97	74.8	0.0	---	0.00	0.0	---	75.7	79.7	79.7	30.135	0.00	0.00	0.000	0.446	86.1	36	56.0	85.6	1405	1	100.0	60
08/02/18	10:00 p	75.6	75.7	75.4	99	75.3	0.0	---	0.00	0.0	---	75.6	79.7	79.7	30.149	0.00	0.00	0.000	0.442	84.4	34	53.0	83.5	1405	1	100.0	60
08/02/18	11:00 p	75.7	75.8	75.7	99	75.4	0.0	---	0.00	0.0	---	75.7	79.8	79.8	30.150	0.00	0.00	0.000	0.446	84.6	36	54.7	84.0	1405	1	100.0	60
08/03/18	12:00 a	75.1	75.7	75.1	99	74.8	0.0	---	0.00	0.0	---	75.1	78.9	78.9	30.151	0.00	0.00	0.000	0.421	84.9	37	55.7	84.5	1405	1	100.0	60

FRIDAY			Temp	Hi	Low	Out	Dew	Wind	Wind	Wind	Hi	Hi	Wind	Heat	THW			Rain	Heat	Cool	In 	In	In 	In 	Wind	Wind	ISS 	Arc.
Date		Time	Out	Temp	Temp	Hum	Pt.	Speed	Dir	Run	Speed	Dir	Chill	Index	Index	Bar  	Rain	Rate	D-D 	D-D 	Temp	Hum	Dew	Heat	Samp	Tx 	Recept	Int.
08/03/18	1:00 a	74.6	75.1	74.6	99	74.3	0.0	---	0.00	0.0	---	74.6	78.3	78.3	30.146	0.00	0.00	0.000	0.400	83.3	35	52.8	82.3	1403	1	100.0	60
08/03/18	2:00 a	74.3	74.6	74.2	100	74.3	0.0	---	0.00	0.0	---	74.3	78.0	78.0	30.142	0.00	0.00	0.000	0.388	83.7	36	53.9	83.0	1405	1	100.0	60
08/03/18	3:00 a	74.7	74.7	74.3	100	74.7	0.0	---	0.00	0.0	---	74.7	78.4	78.4	30.146	0.00	0.00	0.000	0.404	83.8	37	54.7	83.4	1405	1	100.0	60
08/03/18	4:00 a	74.8	75.0	74.7	100	74.8	0.0	---	0.00	0.0	---	74.8	78.6	78.6	30.135	0.00	0.00	0.000	0.408	83.8	37	54.7	83.4	1405	1	100.0	60
08/03/18	5:00 a	74.4	74.8	74.3	100	74.4	0.0	---	0.00	0.0	---	74.4	78.1	78.1	30.144	0.00	0.00	0.000	0.392	82.3	36	52.7	81.2	1405	1	100.0	60
08/03/18	6:00 a	74.8	74.8	74.4	100	74.8	0.0	---	0.00	0.0	---	74.8	78.6	78.6	30.151	0.00	0.00	0.000	0.408	82.8	37	53.9	81.9	1405	1	100.0	60
08/03/18	7:00 a	76.0	76.0	74.8	100	76.0	0.0	---	0.00	0.0	---	76.0	80.3	80.3	30.166	0.00	0.00	0.000	0.458	83.5	37	54.5	82.9	1405	1	100.0	60
08/03/18	8:00 a	75.2	76.7	75.2	100	75.2	0.0	SSW	0.00	7.0	SSW	75.2	79.1	79.1	30.176	0.04	0.84	0.000	0.425	84.1	37	55.0	83.8	1405	1	100.0	60
08/03/18	9:00 a	77.7	77.7	75.2	94	75.8	0.0	---	0.00	0.0	---	77.7	82.7	82.7	30.191	0.01	0.06	0.000	0.529	83.8	36	54.0	83.2	1405	1	100.0	60
08/03/18	10:00 a	78.2	78.2	77.1	94	76.3	0.0	SSW	0.00	6.0	SW	78.2	83.7	83.7	30.174	0.00	0.00	0.000	0.550	81.5	41	55.5	80.8	1405	1	100.0	60
08/03/18	11:00 a	82.8	82.8	78.2	83	77.1	0.0	SSW	0.00	11.0	SW	82.8	92.0	92.0	30.178	0.00	0.00	0.000	0.742	80.7	39	53.4	79.6	1405	1	100.0	60
08/03/18	12:00 p	84.3	84.4	82.8	82	78.2	0.0	SSW	0.00	12.0	S	84.3	95.8	95.8	30.181	0.00	0.00	0.000	0.804	82.4	44	58.3	82.4	1405	1	100.0	60
08/03/18	1:00 p	84.4	84.4	83.8	83	78.7	0.0	SSE	0.00	6.0	SE	84.4	96.3	96.3	30.177	0.00	0.00	0.000	0.808	82.2	35	51.8	80.9	1405	1	100.0	60
08/03/18	2:00 p	86.1	86.1	84.4	78	78.4	0.0	SW	0.00	10.0	SW	86.1	98.4	98.4	30.162	0.00	0.00	0.000	0.879	83.9	43	59.0	84.6	1404	1	100.0	60
08/03/18	3:00 p	87.5	88.0	86.1	76	79.0	0.0	SW	0.00	11.0	SW	87.5	101.1	101.1	30.150	0.00	0.00	0.000	0.938	84.3	35	53.7	83.6	1405	1	100.0	60
08/03/18	4:00 p	87.2	87.5	87.1	77	79.1	0.0	WSW	0.00	11.0	S	87.2	101.0	101.0	30.131	0.00	0.00	0.000	0.925	85.8	43	60.7	86.5	1405	1	100.0	60
08/03/18	5:00 p	85.8	87.3	85.8	77	77.8	0.0	SSE	0.00	6.0	WSW	85.8	97.2	97.2	30.126	0.00	0.00	0.000	0.867	85.8	34	54.2	84.9	1405	1	100.0	60
08/03/18	6:00 p	80.5	85.8	80.5	86	75.9	0.0	WSW	0.00	6.0	SSW	80.5	87.0	87.0	30.123	0.17	5.54	0.000	0.646	85.5	41	59.1	85.8	1405	1	100.0	60
08/03/18	7:00 p	78.9	80.5	78.9	94	77.0	0.0	SSW	0.00	4.0	SSW	78.9	85.4	85.4	30.118	0.00	0.00	0.000	0.579	85.2	36	55.2	84.6	1405	1	100.0	60
08/03/18	8:00 p	78.0	78.9	78.0	93	75.8	0.0	SSE	0.00	4.0	SSE	78.0	83.2	83.2	30.118	0.00	0.00	0.000	0.542	83.3	41	57.1	83.3	1405	1	100.0	60
08/03/18	9:00 p	76.7	78.0	76.7	94	74.8	0.0	---	0.00	0.0	---	76.7	80.9	80.9	30.130	0.00	0.00	0.000	0.487	83.4	42	57.9	83.7	1405	1	100.0	60
08/03/18	10:00 p	75.7	76.8	75.7	94	73.8	0.0	SSW	0.00	6.0	SW	75.7	79.5	79.5	30.143	0.00	0.00	0.000	0.446	81.2	40	54.6	80.3	1405	1	100.0	60
08/03/18	11:00 p	74.7	75.7	74.6	94	72.9	0.0	---	0.00	0.0	---	74.7	78.1	78.1	30.141	0.00	0.00	0.000	0.404	81.3	41	55.3	80.5	1405	1	100.0	60
08/04/18	12:00 a	73.7	74.7	73.7	95	72.2	0.0	---	0.00	0.0	---	73.7	76.6	76.6	30.150	0.00	0.00	0.000	0.362	80.2	39	53.0	79.1	1405	1	100.0	60

SATURDAY		Temp	Hi	Low	Out	Dew	Wind	Wind	Wind	Hi	Hi	Wind	Heat	THW			Rain	Heat	Cool	In 	In	In 	In 	Wind	Wind	ISS 	Arc.
Date		Time	Out	Temp	Temp	Hum	Pt.	Speed	Dir	Run	Speed	Dir	Chill	Index	Index	Bar  	Rain	Rate	D-D 	D-D 	Temp	Hum	Dew	Heat	Samp	Tx 	Recept	Int.
08/04/18	1:00 a	73.6	73.7	73.6	96	72.4	0.0	---	0.00	0.0	---	73.6	76.7	76.7	30.149	0.00	0.00	0.000	0.358	79.7	41	53.9	78.9	1404	1	100.0	60
08/04/18	2:00 a	73.8	73.8	73.5	98	73.2	0.0	---	0.00	0.0	---	73.8	77.1	77.1	30.140	0.00	0.00	0.000	0.367	79.9	42	54.8	79.2	1404	1	100.0	60
08/04/18	3:00 a	74.0	74.1	73.8	98	73.4	0.0	---	0.00	0.0	---	74.0	77.4	77.4	30.124	0.00	0.00	0.000	0.375	79.9	42	54.8	79.2	1406	1	100.0	60
08/04/18	4:00 a	74.1	74.1	74.0	99	73.8	0.0	---	0.00	0.0	---	74.1	77.6	77.6	30.126	0.01	0.00	0.000	0.379	78.4	41	52.7	77.6	1404	1	100.0	60
08/04/18	5:00 a	74.0	74.1	74.0	99	73.7	0.0	---	0.00	0.0	---	74.0	77.5	77.5	30.128	0.00	0.00	0.000	0.375	78.7	42	53.7	78.1	1405	1	100.0	60
08/04/18	6:00 a	74.1	74.2	74.0	99	73.8	0.0	---	0.00	0.0	---	74.1	77.6	77.6	30.138	0.00	0.00	0.000	0.379	78.8	43	54.4	78.3	1405	1	100.0	60
08/04/18	7:00 a	73.5	74.1	73.5	100	73.5	0.0	WSW	0.00	4.0	WSW	73.5	77.1	77.1	30.153	0.05	1.32	0.000	0.354	82.2	40	55.5	81.6	1405	1	100.0	60
08/04/18	8:00 a	74.7	74.7	73.5	100	74.7	0.0	---	0.00	0.0	---	74.7	78.4	78.4	30.157	0.00	0.00	0.000	0.404	81.9	36	52.3	80.7	1405	1	100.0	60
08/04/18	9:00 a	75.9	75.9	74.7	100	75.9	0.0	---	0.00	0.0	---	75.9	80.2	80.2	30.170	0.00	0.00	0.000	0.454	83.5	36	53.7	82.7	1405	1	100.0	60
08/04/18	10:00 a	78.9	78.9	75.9	97	78.0	0.0	S	0.00	7.0	SSW	78.9	86.0	86.0	30.162	0.00	0.00	0.000	0.579	83.3	35	52.8	82.3	1405	1	100.0	60
08/04/18	11:00 a	82.1	82.1	79.0	88	78.2	0.0	W	0.00	7.0	WSW	82.1	91.7	91.7	30.165	0.00	0.00	0.000	0.712	85.5	37	56.3	85.1	1405	1	100.0	60
08/04/18	12:00 p	84.0	84.5	82.1	82	77.9	0.0	WSW	0.00	5.0	W	84.0	95.1	95.1	30.158	0.00	0.00	0.000	0.792	86.3	35	55.4	85.6	1405	1	100.0	60
08/04/18	1:00 p	87.6	87.6	84.0	76	79.1	0.0	SSW	0.00	11.0	SW	87.6	101.2	101.2	30.146	0.00	0.00	0.000	0.942	88.9	39	60.7	89.5	1405	1	100.0	60
08/04/18	2:00 p	88.1	88.1	87.6	73	78.3	0.0	WSW	0.00	6.0	SSW	88.1	100.8	100.8	30.133	0.00	0.00	0.000	0.962	88.7	35	57.5	87.8	1405	1	100.0	60
08/04/18	3:00 p	89.0	89.6	88.2	70	77.9	0.0	SSW	0.00	5.0	SW	89.0	102.3	102.3	30.114	0.00	0.00	0.000	1.000	91.7	37	61.7	92.9	1405	1	100.0	60
08/04/18	4:00 p	89.9	90.2	89.0	69	78.4	0.0	WSW	0.00	10.0	SSW	89.9	104.9	104.9	30.108	0.00	0.00	0.000	1.038	91.3	32	57.3	91.0	1405	1	100.0	60
08/04/18	5:00 p	90.5	90.5	89.9	66	77.6	0.0	SSW	0.00	4.0	SSW	90.5	104.8	104.8	30.109	0.00	0.00	0.000	1.063	93.8	33	60.3	94.6	1404	1	100.0	60
08/04/18	6:00 p	90.2	90.7	90.2	71	79.5	0.0	W	0.00	7.0	WNW	90.2	107.2	107.2	30.097	0.00	0.00	0.000	1.050	92.8	32	58.6	93.0	1405	1	100.0	60
08/04/18	7:00 p	88.7	90.2	88.7	74	79.3	0.0	SSW	0.00	10.0	SSW	88.7	103.7	103.7	30.106	0.00	0.00	0.000	0.987	91.3	31	56.4	90.8	1406	1	100.0	60
08/04/18	8:00 p	85.7	88.7	85.6	80	78.8	0.0	NE	0.00	4.0	NE	85.7	98.1	98.1	30.112	0.00	0.00	0.000	0.862	92.0	31	57.0	91.6	1404	1	100.0	60
08/04/18	9:00 p	83.3	85.6	83.3	83	77.6	0.0	NE	0.00	4.0	NE	83.3	93.4	93.4	30.125	0.00	0.00	0.000	0.763	89.7	33	56.8	89.0	1405	1	100.0	60
08/04/18	10:00 p	81.2	83.3	81.2	87	77.0	0.0	---	0.00	0.0	---	81.2	88.9	88.9	30.138	0.00	0.00	0.000	0.675	89.5	30	54.0	88.0	1405	1	100.0	60
08/04/18	11:00 p	79.5	81.2	79.5	93	77.3	0.0	---	0.00	0.0	---	79.5	86.5	86.5	30.157	0.00	0.00	0.000	0.604	88.4	34	56.5	87.2	1405	1	100.0	60
08/05/18	12:00 a	78.4	79.5	78.4	96	77.2	0.0	SSW	0.00	4.0	SSW	78.4	84.6	84.6	30.155	0.00	0.00	0.000	0.558	87.5	30	52.2	85.4	1405	1	100.0	60

SUNDAY			Temp	Hi	Low	Out	Dew	Wind	Wind	Wind	Hi	Hi	Wind	Heat	THW			Rain	Heat	Cool	In 	In	In 	In 	Wind	Wind	ISS 	Arc.
Date		Time	Out	Temp	Temp	Hum	Pt.	Speed	Dir	Run	Speed	Dir	Chill	Index	Index	Bar  	Rain	Rate	D-D 	D-D 	Temp	Hum	Dew	Heat	Samp	Tx 	Recept	Int.
08/05/18	1:00 a	77.4	78.4	77.4	97	76.5	0.0	---	0.00	0.0	---	77.4	82.6	82.6	30.148	0.00	0.00	0.000	0.517	86.9	34	55.2	85.9	1404	1	100.0	60
08/05/18	2:00 a	76.6	77.4	76.6	98	76.0	0.0	---	0.00	0.0	---	76.6	81.2	81.2	30.146	0.00	0.00	0.000	0.483	86.9	35	56.0	86.1	1405	1	100.0	60
08/05/18	3:00 a	75.8	76.6	75.8	99	75.5	0.0	---	0.00	0.0	---	75.8	79.9	79.9	30.146	0.00	0.00	0.000	0.450	86.8	36	56.6	86.2	1405	1	100.0	60
08/05/18	4:00 a	75.2	75.8	75.1	99	74.9	0.0	---	0.00	0.0	---	75.2	79.1	79.1	30.150	0.00	0.00	0.000	0.425	84.8	34	53.3	83.8	1405	1	100.0	60
08/05/18	5:00 a	74.6	75.2	74.6	99	74.3	0.0	---	0.00	0.0	---	74.6	78.3	78.3	30.149	0.00	0.00	0.000	0.400	85.0	36	55.1	84.4	1405	1	100.0	60
08/05/18	6:00 a	74.3	74.6	74.2	100	74.3	0.0	---	0.00	0.0	---	74.3	78.0	78.0	30.156	0.00	0.00	0.000	0.388	85.0	36	55.1	84.4	1405	1	100.0	60
08/05/18	7:00 a	75.0	75.0	74.0	100	75.0	0.0	---	0.00	0.0	---	75.0	78.8	78.8	30.163	0.00	0.00	0.000	0.417	85.1	36	55.1	84.5	1405	1	100.0	60
08/05/18	8:00 a	76.9	77.0	75.1	100	76.9	0.0	---	0.00	0.0	---	76.9	82.0	82.0	30.173	0.00	0.00	0.000	0.496	83.4	34	52.1	82.2	1404	1	100.0	60
08/05/18	9:00 a	82.1	82.1	77.0	93	79.9	0.0	NE	0.00	5.0	NE	82.1	93.5	93.5	30.181	0.00	0.00	0.000	0.712	84.5	34	53.0	83.6	1405	1	100.0	60
08/05/18	10:00 a	85.7	85.7	82.1	79	78.4	0.0	NE	0.00	10.0	ENE	85.7	97.7	97.7	30.185	0.00	0.00	0.000	0.862	85.2	35	54.5	84.4	1405	1	100.0	60
08/05/18	11:00 a	87.0	87.0	85.7	68	75.2	0.0	ENE	0.00	7.0	NE	87.0	96.7	96.7	30.184	0.00	0.00	0.000	0.917	88.0	36	57.7	87.1	1405	1	100.0	60
08/05/18	12:00 p	88.5	88.5	87.0	67	76.1	0.0	NE	0.00	5.0	WNW	88.5	99.2	99.2	30.181	0.00	0.00	0.000	0.979	88.6	36	58.2	88.0	1405	1	100.0	60
08/05/18	1:00 p	88.9	88.9	88.4	71	78.3	0.0	ENE	0.00	5.0	NW	88.9	102.6	102.6	30.166	0.00	0.00	0.000	0.996	90.1	34	58.0	89.8	1405	1	100.0	60
08/05/18	2:00 p	90.0	90.5	88.9	60	74.2	0.0	NNE	0.00	5.0	ENE	90.0	99.8	99.8	30.148	0.00	0.00	0.000	1.042	91.3	36	60.6	92.0	1405	1	100.0	60
08/05/18	3:00 p	91.6	91.6	89.7	66	78.6	0.0	NE	0.00	5.0	NE	91.6	108.1	108.1	30.128	0.00	0.00	0.000	1.108	92.0	31	57.0	91.6	1405	1	100.0	60
08/05/18	4:00 p	91.4	92.1	91.4	66	78.4	0.0	ENE	0.00	6.0	SSW	91.4	107.5	107.5	30.114	0.00	0.00	0.000	1.100	93.7	36	62.7	95.5	1405	1	100.0	60
08/05/18	5:00 p	89.3	91.4	89.3	70	78.2	0.0	NE	0.00	7.0	NE	89.3	103.4	103.4	30.105	0.00	0.00	0.000	1.013	93.0	30	57.0	92.7	1405	1	100.0	60
08/05/18	6:00 p	87.1	89.3	87.0	76	78.6	0.0	SSE	0.00	4.0	S	87.1	100.3	100.3	30.115	0.00	0.00	0.000	0.921	92.9	36	62.0	94.3	1405	1	100.0	60
08/05/18	7:00 p	86.7	87.1	86.5	76	78.2	0.0	ENE	0.00	6.0	ENE	86.7	99.3	99.3	30.124	0.00	0.00	0.000	0.904	90.9	31	56.1	90.3	1405	1	100.0	60
08/05/18	8:00 p	84.5	86.7	84.5	80	77.6	0.0	SSE	0.00	4.0	SSE	84.5	95.5	95.5	30.123	0.00	0.00	0.000	0.813	90.5	36	59.9	90.8	1405	1	100.0	60
08/05/18	9:00 p	81.6	84.5	81.6	84	76.3	0.0	ESE	0.00	4.0	SSE	81.6	89.1	89.1	30.129	0.00	0.00	0.000	0.692	89.1	31	54.5	87.5	1404	1	100.0	60
08/05/18	10:00 p	79.9	81.6	79.8	87	75.7	0.0	---	0.00	0.0	---	79.9	85.9	85.9	30.138	0.00	0.00	0.000	0.621	88.9	35	57.7	88.2	1405	1	100.0	60
08/05/18	11:00 p	78.5	79.8	78.5	90	75.3	0.0	---	0.00	0.0	---	78.5	83.8	83.8	30.142	0.00	0.00	0.000	0.563	87.1	33	54.5	85.9	1405	1	100.0	60
08/06/18	12:00 a	77.6	78.5	77.6	92	75.1	0.0	SSE	0.00	4.0	SSE	77.6	82.3	82.3	30.130	0.00	0.00	0.000	0.525	87.3	35	56.3	86.4	1405	1	100.0	60

MONDAY			Temp	Hi	Low	Out	Dew	Wind	Wind	Wind	Hi	Hi	Wind	Heat	THW			Rain	Heat	Cool	In 	In	In 	In 	Wind	Wind	ISS 	Arc.
Date		Time	Out	Temp	Temp	Hum	Pt.	Speed	Dir	Run	Speed	Dir	Chill	Index	Index	Bar  	Rain	Rate	D-D 	D-D 	Temp	Hum	Dew	Heat	Samp	Tx 	Recept	Int.
08/06/18	1:00 a	77.0	77.6	77.0	94	75.1	0.0	---	0.00	0.0	---	77.0	81.4	81.4	30.129	0.00	0.00	0.000	0.500	87.2	35	56.2	86.3	1404	1	100.0	60
08/06/18	2:00 a	76.5	77.0	76.5	96	75.3	0.0	---	0.00	0.0	---	76.5	80.9	80.9	30.123	0.00	0.00	0.000	0.479	86.9	35	56.0	86.1	1405	1	100.0	60
08/06/18	3:00 a	75.8	76.5	75.8	97	74.9	0.0	---	0.00	0.0	---	75.8	79.8	79.8	30.112	0.00	0.00	0.000	0.450	85.2	35	54.5	84.4	1405	1	100.0	60
08/06/18	4:00 a	75.1	75.8	75.1	97	74.2	0.0	---	0.00	0.0	---	75.1	78.9	78.9	30.111	0.00	0.00	0.000	0.421	85.4	35	54.6	84.6	1405	1	100.0	60
08/06/18	5:00 a	74.7	75.1	74.7	97	73.8	0.0	---	0.00	0.0	---	74.7	78.3	78.3	30.115	0.00	0.00	0.000	0.404	85.2	36	55.2	84.6	1405	1	100.0	60
08/06/18	6:00 a	74.3	74.7	74.3	98	73.7	0.0	---	0.00	0.0	---	74.3	77.8	77.8	30.120	0.00	0.00	0.000	0.388	83.7	34	52.3	82.7	1405	1	100.0	60
08/06/18	7:00 a	74.9	74.9	74.2	100	74.9	0.0	---	0.00	0.0	---	74.9	78.7	78.7	30.122	0.00	0.00	0.000	0.413	84.1	35	53.5	83.4	1405	1	100.0	60
08/06/18	8:00 a	77.3	77.3	74.9	99	77.0	0.0	---	0.00	0.0	---	77.3	82.7	82.7	30.126	0.00	0.00	0.000	0.513	85.0	36	55.1	84.4	1405	1	100.0	60
08/06/18	9:00 a	82.1	82.1	77.3	90	78.9	0.0	NNW	0.00	4.0	W	82.1	92.4	92.4	30.124	0.00	0.00	0.000	0.712	84.5	35	53.8	83.8	1405	1	100.0	60
08/06/18	10:00 a	85.7	85.7	82.1	79	78.4	0.0	W	0.00	6.0	W	85.7	97.7	97.7	30.124	0.00	0.00	0.000	0.862	83.0	40	56.2	82.7	1404	1	100.0	60
08/06/18	11:00 a	88.2	88.2	85.7	74	78.9	0.0	ENE	0.00	4.0	ENE	88.2	101.7	101.7	30.116	0.00	0.00	0.000	0.967	83.0	36	53.3	82.0	1405	1	100.0	60
08/06/18	12:00 p	89.9	89.9	88.2	68	77.9	0.0	S	0.00	5.0	S	89.9	104.3	104.3	30.104	0.00	0.00	0.000	1.038	85.6	36	55.6	85.0	1405	1	100.0	60
08/06/18	1:00 p	91.6	91.8	89.9	65	78.2	0.0	ENE	0.00	7.0	ESE	91.6	107.4	107.4	30.095	0.00	0.00	0.000	1.108	86.3	37	57.0	86.0	1405	1	100.0	60
08/06/18	2:00 p	90.8	92.2	90.8	67	78.3	0.0	NNE	0.00	11.0	ENE	90.8	106.4	106.4	30.078	0.00	0.00	0.000	1.075	88.5	34	56.6	87.3	1405	1	100.0	60
08/06/18	3:00 p	84.8	90.8	84.8	79	77.6	0.0	NE	0.00	10.0	ESE	84.8	95.7	95.7	30.070	0.06	1.73	0.000	0.825	87.7	35	56.7	86.6	1405	1	100.0	60
08/06/18	4:00 p	81.6	84.7	81.6	88	77.7	0.0	S	0.00	21.0	SSE	81.6	90.3	90.3	30.080	0.10	2.41	0.000	0.692	88.2	32	54.6	86.4	1404	1	100.0	60
08/06/18	5:00 p	83.1	83.1	81.3	87	78.8	0.0	SSE	0.00	4.0	S	83.1	94.1	94.1	30.064	0.00	0.00	0.000	0.754	88.0	36	57.7	87.1	1405	1	100.0	60
08/06/18	6:00 p	81.1	83.4	81.1	82	75.1	0.0	---	0.00	0.0	---	81.1	87.3	87.3	30.062	0.00	0.00	0.000	0.671	86.4	31	52.2	84.9	1405	1	100.0	60
08/06/18	7:00 p	80.9	81.1	79.9	85	76.0	0.0	---	0.00	0.0	---	80.9	87.6	87.6	30.045	0.00	0.00	0.000	0.663	86.9	37	57.5	86.6	1405	1	100.0	60
08/06/18	8:00 p	80.9	81.3	80.9	83	75.2	0.0	NNE	0.00	4.0	NNE	80.9	87.1	87.1	30.051	0.00	0.00	0.000	0.663	84.8	37	55.6	84.4	1405	1	100.0	60
08/06/18	9:00 p	78.7	80.9	78.7	89	75.2	0.0	---	0.00	0.0	---	78.7	83.9	83.9	30.060	0.00	0.00	0.000	0.571	84.7	39	57.0	84.7	1405	1	100.0	60
08/06/18	10:00 p	77.7	78.7	77.7	92	75.2	0.0	---	0.00	0.0	---	77.7	82.5	82.5	30.075	0.00	0.00	0.000	0.529	82.8	37	53.9	81.9	1405	1	100.0	60
08/06/18	11:00 p	76.8	77.7	76.8	93	74.6	0.0	---	0.00	0.0	---	76.8	81.0	81.0	30.069	0.00	0.00	0.000	0.492	82.9	38	54.7	82.2	1405	1	100.0	60
08/07/18	12:00 a	76.0	76.8	76.0	94	74.1	0.0	---	0.00	0.0	---	76.0	79.9	79.9	30.060	0.00	0.00	0.000	0.458	81.2	37	52.4	79.9	1404	1	100.0	60

TUESDAY			Temp	Hi	Low	Out	Dew	Wind	Wind	Wind	Hi	Hi	Wind	Heat	THW			Rain	Heat	Cool	In 	In	In 	In 	Wind	Wind	ISS 	Arc.
Date		Time	Out	Temp	Temp	Hum	Pt.	Speed	Dir	Run	Speed	Dir	Chill	Index	Index	Bar  	Rain	Rate	D-D 	D-D 	Temp	Hum	Dew	Heat	Samp	Tx 	Recept	Int.
08/07/18	1:00 a	75.4	76.0	75.4	96	74.2	0.0	---	0.00	0.0	---	75.4	79.3	79.3	30.039	0.00	0.00	0.000	0.433	81.4	39	54.1	80.4	1403	1	100.0	60
08/07/18	2:00 a	75.1	75.4	75.0	97	74.2	0.0	---	0.00	0.0	---	75.1	78.9	78.9	30.025	0.00	0.00	0.000	0.421	81.5	40	54.8	80.7	1405	1	100.0	60
08/07/18	3:00 a	74.8	75.0	74.8	98	74.2	0.0	---	0.00	0.0	---	74.8	78.5	78.5	30.024	0.00	0.00	0.000	0.408	79.8	39	52.6	78.7	1405	1	100.0	60
08/07/18	4:00 a	74.9	74.9	74.8	98	74.3	0.0	---	0.00	0.0	---	74.9	78.6	78.6	30.023	0.00	0.00	0.000	0.413	80.1	40	53.6	79.1	1405	1	100.0	60
08/07/18	5:00 a	74.7	74.9	74.7	99	74.4	0.0	---	0.00	0.0	---	74.7	78.4	78.4	30.015	0.00	0.00	0.000	0.404	80.2	40	53.7	79.2	1405	1	100.0	60
08/07/18	6:00 a	74.5	74.7	74.5	99	74.2	0.0	---	0.00	0.0	---	74.5	78.1	78.1	30.028	0.00	0.00	0.000	0.396	81.3	37	52.5	80.1	1405	1	100.0	60
08/07/18	7:00 a	75.3	75.3	74.4	100	75.3	0.0	---	0.00	0.0	---	75.3	79.3	79.3	30.027	0.00	0.00	0.000	0.429	83.7	36	53.9	83.0	1405	1	100.0	60
08/07/18	8:00 a	77.2	77.2	75.3	100	77.2	0.0	---	0.00	0.0	---	77.2	82.6	82.6	30.028	0.00	0.00	0.000	0.508	84.5	36	54.6	83.9	1405	1	100.0	60
08/07/18	9:00 a	80.6	80.6	77.2	92	78.1	0.0	SSW	0.00	10.0	SSW	80.6	88.8	88.8	30.034	0.00	0.00	0.000	0.650	84.3	35	53.7	83.6	1405	1	100.0	60
08/07/18	10:00 a	84.3	84.3	80.6	87	80.0	0.0	SE	0.00	7.0	SSE	84.3	97.6	97.6	30.024	0.00	0.00	0.000	0.804	82.4	39	55.0	81.7	1405	1	100.0	60
08/07/18	11:00 a	87.4	87.4	84.3	81	80.8	0.0	E	0.00	5.0	ESE	87.4	103.7	103.7	30.016	0.00	0.00	0.000	0.933	82.1	40	55.4	81.4	1405	1	100.0	60
08/07/18	12:00 p	89.7	89.7	87.4	77	81.5	0.0	SSW	0.00	7.0	S	89.7	109.8	109.8	30.010	0.00	0.00	0.000	1.029	84.2	39	56.6	84.3	1404	1	100.0	60
08/07/18	1:00 p	91.3	91.3	89.7	74	81.8	0.0	SSE	0.00	7.0	W	91.3	113.8	113.8	29.997	0.00	0.00	0.000	1.096	85.9	43	60.8	86.6	1405	1	100.0	60
08/07/18	2:00 p	93.5	93.5	91.3	69	81.8	0.0	SW	0.00	14.0	S	93.5	116.7	116.7	29.979	0.00	0.00	0.000	1.188	87.2	40	59.9	87.5	1405	1	100.0	60
08/07/18	3:00 p	94.1	94.2	93.4	66	81.0	0.0	SE	0.00	13.0	WSW	94.1	116.2	116.2	29.949	0.00	0.00	0.000	1.212	87.2	40	59.9	87.5	1405	1	100.0	60
08/07/18	4:00 p	93.1	94.3	93.1	67	80.5	0.0	SSW	0.00	10.0	SSW	93.1	113.6	113.6	29.927	0.00	0.00	0.000	1.171	90.0	39	61.7	90.9	1405	1	100.0	60
08/07/18	5:00 p	91.4	93.1	91.4	73	81.5	0.0	SSW	0.00	6.0	S	91.4	113.2	113.2	29.934	0.00	0.00	0.000	1.100	88.2	37	58.6	87.7	1405	1	100.0	60
08/07/18	6:00 p	91.8	91.9	91.2	68	79.7	0.0	SW	0.00	13.0	S	91.8	110.2	110.2	29.924	0.00	0.00	0.000	1.117	89.6	37	59.9	89.8	1405	1	100.0	60
08/07/18	7:00 p	90.6	91.8	90.6	68	78.6	0.0	SSW	0.00	12.0	S	90.6	106.4	106.4	29.926	0.00	0.00	0.000	1.067	87.3	37	57.8	86.9	1405	1	100.0	60
08/07/18	8:00 p	88.0	90.6	88.0	72	77.8	0.0	SSW	0.00	4.0	SSW	88.0	100.0	100.0	29.936	0.00	0.00	0.000	0.958	87.9	33	55.2	86.3	1405	1	100.0	60
08/07/18	9:00 p	85.4	88.0	85.4	77	77.4	0.0	SW	0.00	4.0	SW	85.4	96.3	96.3	29.942	0.00	0.00	0.000	0.850	87.0	38	58.3	86.9	1405	1	100.0	60
08/07/18	10:00 p	83.6	85.4	83.6	83	77.9	0.0	SW	0.00	4.0	SW	83.6	94.3	94.3	29.950	0.00	0.00	0.000	0.775	85.3	32	52.1	83.9	1405	1	100.0	60
08/07/18	11:00 p	82.2	83.6	82.2	87	77.9	0.0	WSW	0.00	4.0	WSW	82.2	91.6	91.6	29.949	0.00	0.00	0.000	0.717	85.6	38	57.1	85.4	1405	1	100.0	60
08/08/18	12:00 a	81.0	82.2	81.0	89	77.4	0.0	SSE	0.00	4.0	SSE	81.0	88.9	88.9	29.945	0.00	0.00	0.000	0.667	83.9	36	54.1	83.3	1406	1	100.0	60

WEDNESDAY		Temp	Hi	Low	Out	Dew	Wind	Wind	Wind	Hi	Hi	Wind	Heat	THW			Rain	Heat	Cool	In 	In	In 	In 	Wind	Wind	ISS 	Arc.
Date		Time	Out	Temp	Temp	Hum	Pt.	Speed	Dir	Run	Speed	Dir	Chill	Index	Index	Bar  	Rain	Rate	D-D 	D-D 	Temp	Hum	Dew	Heat	Samp	Tx 	Recept	Int.
08/08/18	1:00 a	80.2	81.0	80.2	92	77.7	0.0	SE	0.00	4.0	SE	80.2	87.8	87.8	29.944	0.00	0.00	0.000	0.633	84.6	39	56.9	84.6	1402	1	100.0	60
08/08/18	2:00 a	79.8	80.2	79.8	94	77.9	0.0	S	0.00	5.0	W	79.8	87.4	87.4	29.936	0.00	0.00	0.000	0.617	82.8	36	53.1	81.7	1405	1	100.0	60
08/08/18	3:00 a	79.0	79.8	79.0	95	77.4	0.0	---	0.00	0.0	---	79.0	85.8	85.8	29.921	0.00	0.00	0.000	0.583	83.4	39	55.8	83.2	1406	1	100.0	60
08/08/18	4:00 a	78.3	79.0	78.3	95	76.7	0.0	---	0.00	0.0	---	78.3	84.1	84.1	29.927	0.00	0.00	0.000	0.554	82.9	35	52.4	81.7	1404	1	100.0	60
08/08/18	5:00 a	77.4	78.3	77.4	97	76.5	0.0	---	0.00	0.0	---	77.4	82.6	82.6	29.925	0.00	0.00	0.000	0.517	82.1	39	54.7	81.3	1405	1	100.0	60
08/08/18	6:00 a	76.5	77.4	76.5	97	75.6	0.0	---	0.00	0.0	---	76.5	81.0	81.0	29.941	0.00	0.00	0.000	0.479	81.9	40	55.2	81.2	1405	1	100.0	60
08/08/18	7:00 a	76.0	76.5	76.0	97	75.1	0.0	---	0.00	0.0	---	76.0	80.1	80.1	29.957	0.00	0.00	0.000	0.458	85.1	34	53.6	84.1	1405	1	100.0	60
08/08/18	8:00 a	77.7	77.7	76.0	92	75.2	0.0	---	0.00	0.0	---	77.7	82.5	82.5	29.956	0.00	0.00	0.000	0.529	85.5	35	54.7	84.8	1405	1	100.0	60
08/08/18	9:00 a	80.9	80.9	77.7	85	76.0	0.0	W	0.00	4.0	W	80.9	87.6	87.6	29.957	0.00	0.00	0.000	0.663	86.4	34	54.7	85.5	1405	1	100.0	60
08/08/18	10:00 a	84.2	84.2	81.0	79	77.0	0.0	WNW	0.00	12.0	W	84.2	94.5	94.5	29.955	0.00	0.00	0.000	0.800	86.9	35	56.0	86.1	1405	1	100.0	60
08/08/18	11:00 a	86.5	86.5	84.2	76	78.0	0.0	SSW	0.00	7.0	WSW	86.5	98.7	98.7	29.944	0.00	0.00	0.000	0.896	88.3	31	53.8	86.3	1405	1	100.0	60
08/08/18	12:00 p	88.9	88.9	86.5	73	79.1	0.0	SSW	0.00	7.0	SW	88.9	103.8	103.8	29.928	0.00	0.00	0.000	0.996	90.1	36	59.5	90.3	1405	1	100.0	60
08/08/18	1:00 p	91.0	91.0	89.0	67	78.5	0.0	SSW	0.00	7.0	W	91.0	107.0	107.0	29.914	0.00	0.00	0.000	1.083	90.3	31	55.6	89.5	1405	1	100.0	60
08/08/18	2:00 p	92.2	92.3	91.0	65	78.7	0.0	W	0.00	7.0	NW	92.2	109.2	109.2	29.902	0.00	0.00	0.000	1.133	93.5	37	63.3	95.7	1405	1	100.0	60
08/08/18	3:00 p	93.5	93.5	92.2	63	79.0	0.0	W	0.00	10.0	WSW	93.5	111.7	111.7	29.895	0.00	0.00	0.000	1.188	93.1	30	57.1	92.8	1404	1	100.0	60
08/08/18	4:00 p	93.6	93.8	93.5	61	78.1	0.0	SW	0.00	16.0	SSW	93.6	110.3	110.3	29.878	0.00	0.00	0.000	1.192	94.3	33	60.8	95.3	1405	1	100.0	60
08/08/18	5:00 p	93.7	93.8	93.4	59	77.2	0.0	WSW	0.00	13.0	WNW	93.7	109.1	109.1	29.854	0.00	0.00	0.000	1.196	96.9	28	58.4	97.2	1405	1	100.0	60
08/08/18	6:00 p	93.3	93.7	93.3	61	77.8	0.0	SSW	0.00	5.0	WNW	93.3	109.4	109.4	29.845	0.00	0.00	0.000	1.179	95.1	28	56.9	94.8	1405	1	100.0	60
08/08/18	7:00 p	92.2	93.3	92.2	62	77.3	0.0	W	0.00	6.0	W	92.2	107.0	107.0	29.845	0.00	0.00	0.000	1.133	96.2	30	59.7	96.9	1405	1	100.0	60
08/08/18	8:00 p	89.3	92.2	89.3	70	78.2	0.0	NW	0.00	4.0	NW	89.3	103.4	103.4	29.866	0.00	0.00	0.000	1.013	93.7	31	58.5	93.9	1405	1	100.0	60
08/08/18	9:00 p	86.0	89.3	86.0	76	77.5	0.0	---	0.00	0.0	---	86.0	97.4	97.4	29.866	0.00	0.00	0.000	0.875	94.2	28	56.1	93.6	1405	1	100.0	60
08/08/18	10:00 p	83.9	86.0	83.9	81	77.4	0.0	---	0.00	0.0	---	83.9	94.5	94.5	29.888	0.00	0.00	0.000	0.788	92.4	30	56.5	91.9	1405	1	100.0	60
08/08/18	11:00 p	82.9	83.9	82.9	77	74.9	0.0	SSW	0.00	14.0	SSW	82.9	90.5	90.5	29.883	0.00	0.00	0.000	0.746	91.7	28	54.0	90.4	1405	1	100.0	60
08/09/18	12:00 a	81.3	82.9	81.3	79	74.2	0.0	SSW	0.00	6.0	SSW	81.3	87.0	87.0	29.872	0.00	0.00	0.000	0.679	90.8	32	56.9	90.4	1405	1	100.0	60

THURSDAY		Temp	Hi	Low	Out	Dew	Wind	Wind	Wind	Hi	Hi	Wind	Heat	THW			Rain	Heat	Cool	In 	In	In 	In 	Wind	Wind	ISS 	Arc.
Date		Time	Out	Temp	Temp	Hum	Pt.	Speed	Dir	Run	Speed	Dir	Chill	Index	Index	Bar  	Rain	Rate	D-D 	D-D 	Temp	Hum	Dew	Heat	Samp	Tx 	Recept	Int.
08/09/18	1:00 a	79.6	81.3	79.6	81	73.3	0.0	SSW	0.00	14.0	SSW	79.6	84.0	84.0	29.871	0.00	0.00	0.000	0.608	88.2	33	55.5	86.6	1404	1	100.0	60
08/09/18	2:00 a	78.0	79.7	78.0	86	73.5	0.0	W	0.00	6.0	WSW	78.0	82.2	82.2	29.860	0.00	0.00	0.000	0.542	87.7	34	55.9	86.4	1405	1	100.0	60
08/09/18	3:00 a	76.4	78.0	76.4	90	73.2	0.0	---	0.00	0.0	---	76.4	80.1	80.1	29.865	0.00	0.00	0.000	0.475	87.9	35	56.8	86.7	1405	1	100.0	60
08/09/18	4:00 a	75.1	76.4	75.1	92	72.6	0.0	SSW	0.00	6.0	SSW	75.1	78.6	78.6	29.864	0.00	0.00	0.000	0.421	85.8	34	54.2	84.9	1404	1	100.0	60
08/09/18	5:00 a	74.2	75.1	74.2	93	72.0	0.0	---	0.00	0.0	---	74.2	77.1	77.1	29.855	0.00	0.00	0.000	0.383	86.2	35	55.3	85.5	1405	1	100.0	60
08/09/18	6:00 a	73.4	74.2	73.4	94	71.6	0.0	---	0.00	0.0	---	73.4	76.2	76.2	29.858	0.00	0.00	0.000	0.350	86.9	34	55.2	85.9	1406	1	100.0	60
08/09/18	7:00 a	73.6	73.6	73.0	95	72.1	0.0	---	0.00	0.0	---	73.6	76.5	76.5	29.872	0.00	0.00	0.000	0.358	85.5	33	53.1	84.4	1404	1	100.0	60
08/09/18	8:00 a	76.0	76.0	73.6	90	72.9	0.0	SW	0.00	4.0	SW	76.0	79.5	79.5	29.870	0.00	0.00	0.000	0.458	85.9	34	54.3	85.0	1405	1	100.0	60
08/09/18	9:00 a	79.8	79.8	76.0	85	74.9	0.0	WNW	0.00	7.0	WSW	79.8	85.2	85.2	29.873	0.00	0.00	0.000	0.617	85.3	32	52.1	83.9	1405	1	100.0	60
08/09/18	10:00 a	82.5	82.5	79.8	80	75.7	0.0	WSW	0.00	7.0	WSW	82.5	90.3	90.3	29.878	0.00	0.00	0.000	0.729	83.8	37	54.7	83.4	1405	1	100.0	60
08/09/18	11:00 a	85.3	85.3	82.6	74	76.1	0.0	WNW	0.00	5.0	WNW	85.3	95.0	95.0	29.888	0.00	0.00	0.000	0.846	83.0	38	54.8	82.3	1405	1	100.0	60
08/09/18	12:00 p	87.2	87.2	85.3	70	76.2	0.0	ENE	0.00	13.0	WNW	87.2	97.8	97.8	29.894	0.00	0.00	0.000	0.925	85.3	35	54.5	84.5	1405	1	100.0	60
08/09/18	1:00 p	88.0	88.0	87.2	66	75.2	0.0	NE	0.00	14.0	ENE	88.0	97.2	97.2	29.890	0.00	0.00	0.000	0.958	85.7	39	57.9	85.7	1405	1	100.0	60
08/09/18	2:00 p	89.1	89.1	88.0	64	75.3	0.0	ENE	0.00	6.0	NE	89.1	99.4	99.4	29.883	0.00	0.00	0.000	1.004	87.4	34	55.6	86.2	1405	1	100.0	60
08/09/18	3:00 p	90.3	90.3	89.1	63	76.0	0.0	ENE	0.00	7.0	WSW	90.3	102.4	102.4	29.869	0.00	0.00	0.000	1.054	88.1	37	58.6	87.5	1405	1	100.0	60
08/09/18	4:00 p	90.7	90.8	90.3	61	75.4	0.0	WNW	0.00	6.0	NNW	90.7	102.2	102.2	29.847	0.00	0.00	0.000	1.071	90.6	31	55.8	89.9	1405	1	100.0	60
08/09/18	5:00 p	91.0	91.0	90.5	57	73.7	0.0	WNW	0.00	4.0	NNW	91.0	100.7	100.7	29.841	0.00	0.00	0.000	1.083	91.0	34	58.7	91.0	1405	1	100.0	60
08/09/18	6:00 p	90.4	91.0	90.4	60	74.6	0.0	SW	0.00	7.0	WNW	90.4	100.8	100.8	29.832	0.00	0.00	0.000	1.058	91.2	30	55.4	90.4	1405	1	100.0	60
08/09/18	7:00 p	87.8	90.4	87.8	66	75.0	0.0	NW	0.00	4.0	NNW	87.8	97.0	97.0	29.842	0.00	0.00	0.000	0.950	89.9	33	56.9	89.4	1404	1	100.0	60
08/09/18	8:00 p	86.8	87.9	86.8	69	75.4	0.0	---	0.00	0.0	---	86.8	96.7	96.7	29.861	0.00	0.00	0.000	0.908	89.5	30	54.0	88.0	1405	1	100.0	60
08/09/18	9:00 p	83.8	86.8	83.8	76	75.4	0.0	---	0.00	0.0	---	83.8	92.5	92.5	29.880	0.00	0.00	0.000	0.783	87.9	35	56.8	86.7	1405	1	100.0	60
08/09/18	10:00 p	82.1	83.8	82.1	79	74.9	0.0	---	0.00	0.0	---	82.1	88.9	88.9	29.892	0.00	0.00	0.000	0.712	91.1	29	54.4	90.0	1405	1	100.0	60
08/09/18	11:00 p	80.5	82.1	80.5	84	75.2	0.0	---	0.00	0.0	---	80.5	86.5	86.5	29.890	0.00	0.00	0.000	0.646	90.2	33	57.2	89.8	1405	1	100.0	60
08/10/18	12:00 a	79.4	80.5	79.4	88	75.5	0.0	---	0.00	0.0	---	79.4	85.1	85.1	29.893	0.00	0.00	0.000	0.600	89.5	32	55.7	88.4	1405	1	100.0	60

FRIDAY			Temp	Hi	Low	Out	Dew	Wind	Wind	Wind	Hi	Hi	Wind	Heat	THW			Rain	Heat	Cool	In 	In	In 	In 	Wind	Wind	ISS 	Arc.
Date		Time	Out	Temp	Temp	Hum	Pt.	Speed	Dir	Run	Speed	Dir	Chill	Index	Index	Bar  	Rain	Rate	D-D 	D-D 	Temp	Hum	Dew	Heat	Samp	Tx 	Recept	Int.
08/10/18	1:00 a	78.6	79.4	78.6	90	75.4	0.0	---	0.00	0.0	---	78.6	83.9	83.9	29.889	0.00	0.00	0.000	0.567	88.2	33	55.5	86.6	1404	1	100.0	60
08/10/18	2:00 a	77.5	78.6	77.5	92	75.0	0.0	---	0.00	0.0	---	77.5	82.1	82.1	29.875	0.00	0.00	0.000	0.521	88.3	34	56.4	87.0	1405	1	100.0	60
08/10/18	3:00 a	76.6	77.5	76.6	94	74.7	0.0	---	0.00	0.0	---	76.6	80.8	80.8	29.872	0.00	0.00	0.000	0.483	86.2	32	52.9	84.9	1405	1	100.0	60
08/10/18	4:00 a	75.8	76.6	75.7	95	74.3	0.0	---	0.00	0.0	---	75.8	79.7	79.7	29.868	0.00	0.00	0.000	0.450	86.5	34	54.8	85.6	1405	1	100.0	60
08/10/18	5:00 a	74.9	75.7	74.9	96	73.7	0.0	---	0.00	0.0	---	74.9	78.6	78.6	29.869	0.00	0.00	0.000	0.413	86.5	34	54.8	85.6	1405	1	100.0	60
08/10/18	6:00 a	74.3	75.0	74.3	96	73.1	0.0	---	0.00	0.0	---	74.3	77.6	77.6	29.871	0.00	0.00	0.000	0.388	84.7	33	52.4	83.5	1405	1	100.0	60
08/10/18	7:00 a	74.5	74.5	74.0	98	73.9	0.0	---	0.00	0.0	---	74.5	78.1	78.1	29.884	0.00	0.00	0.000	0.396	85.1	34	53.6	84.1	1404	1	100.0	60
08/10/18	8:00 a	76.8	76.8	74.5	97	75.9	0.0	---	0.00	0.0	---	76.8	81.4	81.4	29.894	0.00	0.00	0.000	0.492	84.4	33	52.1	83.3	1405	1	100.0	60
08/10/18	9:00 a	81.4	81.4	76.8	90	78.2	0.0	SW	0.00	4.0	WNW	81.4	90.4	90.4	29.893	0.00	0.00	0.000	0.683	85.7	34	54.1	84.8	1405	1	100.0	60
08/10/18	10:00 a	86.2	86.2	81.4	78	78.5	0.0	NE	0.00	6.0	NE	86.2	98.7	98.7	29.898	0.00	0.00	0.000	0.883	82.9	33	50.8	81.4	1405	1	100.0	60
08/10/18	11:00 a	89.3	89.3	86.2	75	80.3	0.0	S	0.00	5.0	SSW	89.3	106.7	106.7	29.907	0.00	0.00	0.000	1.013	84.3	39	56.6	84.3	1405	1	100.0	60
08/10/18	12:00 p	90.6	90.6	89.3	69	79.0	0.0	ENE	0.00	7.0	NE	90.6	107.1	107.1	29.896	0.00	0.00	0.000	1.067	84.4	36	54.5	83.9	1405	1	100.0	60
08/10/18	1:00 p	87.4	90.7	87.4	67	75.1	0.0	NE	0.00	7.0	NNE	87.4	96.9	96.9	29.894	0.00	0.00	0.000	0.933	86.8	37	57.4	86.5	1405	1	100.0	60
08/10/18	2:00 p	82.2	87.4	82.2	84	76.9	0.0	ENE	0.00	10.0	SSE	82.2	90.6	90.6	29.907	0.06	0.61	0.000	0.717	85.3	37	56.1	84.9	1405	1	100.0	60
08/10/18	3:00 p	78.2	82.2	78.0	94	76.3	0.0	SE	0.00	12.0	SE	78.2	83.7	83.7	29.898	0.09	0.61	0.000	0.550	85.8	39	58.0	85.8	1405	1	100.0	60
08/10/18	4:00 p	82.9	82.9	78.2	92	80.3	0.0	ENE	0.00	4.0	ENE	82.9	95.5	95.5	29.867	0.07	1.49	0.000	0.746	85.3	36	55.3	84.7	1405	1	100.0	60
08/10/18	5:00 p	86.1	86.4	82.9	80	79.2	0.0	SSE	0.00	4.0	SSE	86.1	99.1	99.1	29.860	0.00	0.00	0.000	0.879	87.1	39	59.1	87.2	1405	1	100.0	60
08/10/18	6:00 p	84.9	86.1	84.9	77	76.9	0.0	ENE	0.00	6.0	SE	84.9	95.1	95.1	29.859	0.00	0.00	0.000	0.829	85.6	36	55.6	85.0	1405	1	100.0	60
08/10/18	7:00 p	84.5	84.9	84.5	81	78.0	0.0	NW	0.00	6.0	NNW	84.5	95.8	95.8	29.852	0.00	0.00	0.000	0.813	86.3	39	58.4	86.4	1405	1	100.0	60
08/10/18	8:00 p	83.5	84.5	83.5	79	76.3	0.0	E	0.00	4.0	E	83.5	92.8	92.8	29.853	0.00	0.00	0.000	0.771	84.0	37	54.9	83.7	1405	1	100.0	60
08/10/18	9:00 p	80.7	83.5	80.7	84	75.4	0.0	SE	0.00	4.0	SSW	80.7	86.9	86.9	29.869	0.00	0.00	0.000	0.654	85.0	36	55.1	84.4	1405	1	100.0	60
08/10/18	10:00 p	79.0	80.7	78.9	87	74.8	0.0	---	0.00	0.0	---	79.0	84.1	84.1	29.893	0.00	0.00	0.000	0.583	83.1	37	54.1	82.3	1404	1	100.0	60
08/10/18	11:00 p	77.8	78.9	77.8	91	75.0	0.0	---	0.00	0.0	---	77.8	82.6	82.6	29.887	0.00	0.00	0.000	0.533	83.5	38	55.2	83.1	1405	1	100.0	60
08/11/18	12:00 a	76.8	77.8	76.8	93	74.6	0.0	---	0.00	0.0	---	76.8	81.0	81.0	29.891	0.00	0.00	0.000	0.492	81.2	37	52.4	79.9	1405	1	100.0	60

SATURDAY		Temp	Hi	Low	Out	Dew	Wind	Wind	Wind	Hi	Hi	Wind	Heat	THW			Rain	Heat	Cool	In 	In	In 	In 	Wind	Wind	ISS 	Arc.
Date		Time	Out	Temp	Temp	Hum	Pt.	Speed	Dir	Run	Speed	Dir	Chill	Index	Index	Bar  	Rain	Rate	D-D 	D-D 	Temp	Hum	Dew	Heat	Samp	Tx 	Recept	Int.
08/11/18	1:00 a	76.2	76.8	76.1	95	74.7	0.0	---	0.00	0.0	---	76.2	80.3	80.3	29.892	0.00	0.00	0.000	0.467	81.7	39	54.3	80.8	1404	1	100.0	60
08/11/18	2:00 a	75.9	76.2	75.9	97	75.0	0.0	---	0.00	0.0	---	75.9	80.0	80.0	29.888	0.00	0.00	0.000	0.454	81.7	39	54.3	80.8	1405	1	100.0	60
08/11/18	3:00 a	75.5	75.9	75.5	97	74.6	0.0	---	0.00	0.0	---	75.5	79.4	79.4	29.884	0.00	0.00	0.000	0.438	80.0	38	52.1	78.8	1405	1	100.0	60
08/11/18	4:00 a	75.1	75.5	75.1	98	74.5	0.0	WSW	0.00	4.0	WSW	75.1	78.9	78.9	29.890	0.00	0.00	0.000	0.421	80.4	39	53.2	79.3	1405	1	100.0	60
08/11/18	5:00 a	73.9	75.1	73.9	96	72.7	0.0	---	0.00	0.0	---	73.9	77.0	77.0	29.888	0.00	0.00	0.000	0.371	80.4	40	53.9	79.4	1405	1	100.0	60
08/11/18	6:00 a	73.5	73.9	73.5	95	72.0	0.0	---	0.00	0.0	---	73.5	76.4	76.4	29.881	0.00	0.00	0.000	0.354	78.9	39	51.8	78.0	1405	1	100.0	60
08/11/18	7:00 a	73.2	73.5	73.0	95	71.7	0.0	SSE	0.00	4.0	S	73.2	76.0	76.0	29.889	0.00	0.00	0.000	0.342	79.3	40	52.9	78.4	1405	1	100.0	60
08/11/18	8:00 a	75.1	75.1	73.2	95	73.6	0.0	---	0.00	0.0	---	75.1	78.8	78.8	29.884	0.00	0.00	0.000	0.421	82.3	35	51.9	81.0	1405	1	100.0	60
08/11/18	9:00 a	77.1	77.1	75.1	93	74.9	0.0	---	0.00	0.0	---	77.1	81.5	81.5	29.900	0.00	0.00	0.000	0.504	83.9	35	53.3	83.2	1405	1	100.0	60
08/11/18	10:00 a	80.1	80.1	77.1	91	77.2	0.0	---	0.00	0.0	---	80.1	87.3	87.3	29.918	0.00	0.00	0.000	0.629	83.3	34	52.0	82.1	1404	1	100.0	60
08/11/18	11:00 a	83.1	83.1	80.1	84	77.8	0.0	SSW	0.00	6.0	SSW	83.1	93.1	93.1	29.918	0.00	0.00	0.000	0.754	85.3	35	54.5	84.5	1405	1	100.0	60
08/11/18	12:00 p	85.2	85.2	83.1	84	79.8	0.0	---	0.00	0.0	---	85.2	98.5	98.5	29.925	0.00	0.00	0.000	0.842	86.7	32	53.3	85.3	1405	1	100.0	60
08/11/18	1:00 p	87.8	87.8	85.2	76	79.3	0.0	ESE	0.00	4.0	ESE	87.8	101.6	101.6	29.909	0.00	0.00	0.000	0.950	87.5	36	57.3	86.8	1406	1	100.0	60
08/11/18	2:00 p	87.8	88.6	87.8	76	79.3	0.0	ENE	0.00	7.0	E	87.8	101.6	101.6	29.887	0.00	0.00	0.000	0.950	89.3	32	55.6	88.1	1404	1	100.0	60
08/11/18	3:00 p	85.4	87.8	85.4	78	77.8	0.0	ENE	0.00	15.0	NE	85.4	96.6	96.6	29.866	0.00	0.00	0.000	0.850	89.2	35	58.0	88.6	1405	1	100.0	60
08/11/18	4:00 p	80.9	85.3	80.9	90	77.7	0.0	NE	0.00	11.0	ENE	80.9	89.0	89.0	29.856	0.13	3.11	0.000	0.663	89.9	30	54.3	88.8	1405	1	100.0	60
08/11/18	5:00 p	76.3	80.9	76.3	91	73.5	0.0	WSW	0.00	25.0	SSW	76.3	80.1	80.1	29.913	0.96	11.08	0.000	0.471	89.0	35	57.8	88.3	1405	1	100.0	60
08/11/18	6:00 p	72.9	76.3	72.8	98	72.3	0.0	NW	0.00	4.0	NW	72.9	76.2	76.2	29.914	0.20	2.16	0.000	0.329	89.0	36	58.6	88.6	1405	1	100.0	60
08/11/18	7:00 p	73.7	73.7	72.8	99	73.4	0.0	---	0.00	0.0	---	73.7	77.2	77.2	29.911	0.02	0.07	0.000	0.362	85.9	32	52.6	84.6	1405	1	100.0	60
08/11/18	8:00 p	73.9	73.9	73.7	99	73.6	0.0	---	0.00	0.0	---	73.9	77.4	77.4	29.894	0.01	0.07	0.000	0.371	86.5	34	54.8	85.6	1405	1	100.0	60
08/11/18	9:00 p	73.7	73.9	73.7	99	73.4	0.0	---	0.00	0.0	---	73.7	77.2	77.2	29.881	0.00	0.00	0.000	0.362	84.7	33	52.4	83.5	1405	1	100.0	60
08/11/18	10:00 p	73.4	73.7	73.4	100	73.4	0.0	---	0.00	0.0	---	73.4	77.0	77.0	29.922	0.00	0.00	0.000	0.350	85.3	34	53.8	84.3	1405	1	100.0	60
08/11/18	11:00 p	73.6	73.7	73.3	100	73.6	0.0	---	0.00	0.0	---	73.6	77.2	77.2	29.927	0.00	0.00	0.000	0.358	83.6	33	51.5	82.3	1405	1	100.0	60
08/12/18	12:00 a	73.5	73.6	73.5	100	73.5	0.0	---	0.00	0.0	---	73.5	77.1	77.1	29.939	0.00	0.00	0.000	0.354	84.1	34	52.7	83.2	1405	1	100.0	60

SUNDAY			Temp	Hi	Low	Out	Dew	Wind	Wind	Wind	Hi	Hi	Wind	Heat	THW			Rain	Heat	Cool	In 	In	In 	In 	Wind	Wind	ISS 	Arc.
Date		Time	Out	Temp	Temp	Hum	Pt.	Speed	Dir	Run	Speed	Dir	Chill	Index	Index	Bar  	Rain	Rate	D-D 	D-D 	Temp	Hum	Dew	Heat	Samp	Tx 	Recept	Int.
08/12/18	1:00 a	73.1	73.5	73.0	100	73.1	0.0	---	0.00	0.0	---	73.1	76.7	76.7	29.940	0.00	0.00	0.000	0.337	84.0	35	53.4	83.3	1403	1	100.0	60
08/12/18	2:00 a	72.4	73.1	72.4	100	72.4	0.0	---	0.00	0.0	---	72.4	76.0	76.0	29.928	0.00	0.00	0.000	0.308	83.7	35	53.1	82.8	1405	1	100.0	60
08/12/18	3:00 a	72.0	72.5	72.0	100	72.0	0.0	---	0.00	0.0	---	72.0	75.6	75.6	29.934	0.00	0.00	0.000	0.292	83.8	36	54.0	83.2	1405	1	100.0	60
08/12/18	4:00 a	71.9	72.1	71.9	100	71.9	0.0	---	0.00	0.0	---	71.9	75.5	75.5	29.927	0.00	0.00	0.000	0.288	83.6	36	53.8	82.9	1405	1	100.0	60
08/12/18	5:00 a	71.5	71.9	71.5	100	71.5	0.0	---	0.00	0.0	---	71.5	75.1	75.1	29.919	0.01	0.00	0.000	0.271	83.3	36	53.6	82.4	1405	1	100.0	60
08/12/18	6:00 a	71.3	71.5	71.3	100	71.3	0.0	---	0.00	0.0	---	71.3	75.0	75.0	29.936	0.00	0.00	0.000	0.263	82.1	35	51.7	80.8	1405	1	100.0	60
08/12/18	7:00 a	71.5	71.5	71.1	100	71.5	0.0	---	0.00	0.0	---	71.5	75.1	75.1	29.964	0.00	0.00	0.000	0.271	82.6	36	52.9	81.5	1405	1	100.0	60
08/12/18	8:00 a	73.6	73.6	71.5	100	73.6	0.0	---	0.00	0.0	---	73.6	77.2	77.2	29.967	0.00	0.00	0.000	0.358	81.6	35	51.3	80.2	1405	1	100.0	60
08/12/18	9:00 a	75.9	75.9	73.6	100	75.9	0.0	---	0.00	0.0	---	75.9	80.2	80.2	29.969	0.00	0.00	0.000	0.454	83.0	35	52.5	81.8	1405	1	100.0	60
08/12/18	10:00 a	78.0	78.0	75.9	97	77.1	0.0	WNW	0.00	4.0	WNW	78.0	83.8	83.8	29.991	0.00	0.00	0.000	0.542	83.3	34	52.0	82.1	1405	1	100.0	60
08/12/18	11:00 a	81.5	81.5	77.9	90	78.3	0.0	ENE	0.00	4.0	E	81.5	90.6	90.6	29.999	0.00	0.00	0.000	0.688	85.9	35	55.1	85.2	1405	1	100.0	60
08/12/18	12:00 p	83.7	83.8	81.5	82	77.6	0.0	ENE	0.00	12.0	WNW	83.7	94.3	94.3	29.998	0.00	0.00	0.000	0.779	86.9	35	56.0	86.1	1405	1	100.0	60
08/12/18	1:00 p	85.4	85.4	83.7	82	79.3	0.0	ENE	0.00	6.0	ENE	85.4	98.2	98.2	29.985	0.00	0.00	0.000	0.850	84.9	41	58.6	85.2	1404	1	100.0	60
08/12/18	2:00 p	87.3	87.4	85.4	76	78.8	0.0	ENE	0.00	5.0	NE	87.3	100.7	100.7	29.967	0.00	0.00	0.000	0.929	84.4	40	57.4	84.6	1405	1	100.0	60
08/12/18	3:00 p	87.3	87.8	87.0	75	78.4	0.0	NE	0.00	5.0	NE	87.3	100.1	100.1	29.943	0.00	0.00	0.000	0.929	87.2	43	62.0	88.3	1405	1	100.0	60
08/12/18	4:00 p	87.5	88.2	87.3	75	78.6	0.0	NE	0.00	6.0	NE	87.5	100.5	100.5	29.941	0.00	0.00	0.000	0.938	86.5	38	57.9	86.4	1405	1	100.0	60
08/12/18	5:00 p	80.4	87.5	80.4	90	77.2	0.0	ESE	0.00	11.0	SSE	80.4	87.8	87.8	29.947	0.24	3.11	0.000	0.642	90.7	38	61.6	91.8	1405	1	100.0	60
08/12/18	6:00 p	81.3	81.4	80.0	94	79.4	0.0	ENE	0.00	4.0	ESE	81.3	91.3	91.3	29.948	0.00	0.00	0.000	0.679	89.9	32	56.1	89.2	1406	1	100.0	60
08/12/18	7:00 p	79.0	81.4	79.0	93	76.8	0.0	S	0.00	5.0	SSE	79.0	85.4	85.4	29.952	0.01	0.00	0.000	0.583	90.4	34	58.2	90.2	1404	1	100.0	60
08/12/18	8:00 p	77.3	79.0	77.3	95	75.8	0.0	---	0.00	0.0	---	77.3	82.1	82.1	29.972	0.02	0.04	0.000	0.513	87.7	33	55.0	86.2	1405	1	100.0	60
08/12/18	9:00 p	73.2	77.3	73.2	95	71.7	0.0	WNW	0.00	19.0	N	73.2	76.0	76.0	30.005	0.30	4.03	0.000	0.342	88.0	34	56.1	86.6	1405	1	100.0	60
08/12/18	10:00 p	72.3	73.1	72.3	98	71.7	0.0	---	0.00	0.0	---	72.3	75.6	75.6	30.005	0.01	0.16	0.000	0.304	85.6	33	53.2	84.5	1405	1	100.0	60
08/12/18	11:00 p	72.3	72.3	72.2	99	72.0	0.0	---	0.00	0.0	---	72.3	75.7	75.7	30.004	0.00	0.00	0.000	0.304	85.8	34	54.2	84.9	1405	1	100.0	60
08/13/18	12:00 a	72.4	72.4	72.3	99	72.1	0.0	---	0.00	0.0	---	72.4	75.8	75.8	29.979	0.04	0.07	0.000	0.308	85.3	33	52.9	84.1	1405	1	100.0	60

MONDAY			Temp	Hi	Low	Out	Dew	Wind	Wind	Wind	Hi	Hi	Wind	Heat	THW			Rain	Heat	Cool	In 	In	In 	In 	Wind	Wind	ISS 	Arc.
Date		Time	Out	Temp	Temp	Hum	Pt.	Speed	Dir	Run	Speed	Dir	Chill	Index	Index	Bar  	Rain	Rate	D-D 	D-D 	Temp	Hum	Dew	Heat	Samp	Tx 	Recept	Int.
08/13/18	1:00 a	72.3	72.4	72.3	99	72.0	0.0	---	0.00	0.0	---	72.3	75.7	75.7	29.971	0.00	0.00	0.000	0.304	84.9	34	53.4	83.9	1404	1	100.0	60
08/13/18	2:00 a	72.1	72.3	72.1	100	72.1	0.0	---	0.00	0.0	---	72.1	75.7	75.7	29.960	0.00	0.00	0.000	0.296	84.9	35	54.2	84.1	1404	1	100.0	60
08/13/18	3:00 a	72.1	72.2	72.1	100	72.1	0.0	---	0.00	0.0	---	72.1	75.7	75.7	29.989	0.00	0.00	0.000	0.296	84.6	36	54.7	84.0	1405	1	100.0	60
08/13/18	4:00 a	72.0	72.1	71.8	100	72.0	0.0	---	0.00	0.0	---	72.0	75.6	75.6	29.982	0.00	0.00	0.000	0.292	84.4	36	54.5	83.9	1405	1	100.0	60
08/13/18	5:00 a	72.1	72.2	71.9	100	72.1	0.0	---	0.00	0.0	---	72.1	75.7	75.7	29.957	0.02	0.00	0.000	0.296	84.3	36	54.4	83.8	1405	1	100.0	60
08/13/18	6:00 a	72.0	72.1	72.0	100	72.0	0.0	---	0.00	0.0	---	72.0	75.6	75.6	29.965	0.01	0.00	0.000	0.292	83.0	35	52.5	81.8	1405	1	100.0	60
08/13/18	7:00 a	71.9	72.1	71.9	100	71.9	0.0	---	0.00	0.0	---	71.9	75.5	75.5	29.976	0.00	0.00	0.000	0.288	83.6	36	53.8	82.9	1405	1	100.0	60
08/13/18	8:00 a	73.2	73.2	71.8	100	73.2	0.0	---	0.00	0.0	---	73.2	76.8	76.8	29.984	0.00	0.00	0.000	0.342	84.0	36	54.2	83.5	1405	1	100.0	60
08/13/18	9:00 a	74.4	74.4	73.2	100	74.4	0.0	---	0.00	0.0	---	74.4	78.1	78.1	30.000	0.00	0.00	0.000	0.392	84.3	34	52.9	83.4	1405	1	100.0	60
08/13/18	10:00 a	76.9	76.9	74.4	97	76.0	0.0	SW	0.00	4.0	SW	76.9	81.6	81.6	30.003	0.00	0.00	0.000	0.496	84.8	36	54.9	84.2	1405	1	100.0	60
08/13/18	11:00 a	79.4	79.4	76.9	91	76.5	0.0	SW	0.00	4.0	SSW	79.4	85.8	85.8	29.999	0.00	0.00	0.000	0.600	85.8	32	52.5	84.5	1405	1	100.0	60
08/13/18	12:00 p	81.0	81.1	79.4	86	76.4	0.0	WNW	0.00	4.0	SE	81.0	88.1	88.1	29.987	0.00	0.00	0.000	0.667	86.7	37	57.3	86.4	1405	1	100.0	60
08/13/18	1:00 p	82.6	82.6	81.0	82	76.5	0.0	WSW	0.00	5.0	WSW	82.6	91.2	91.2	29.980	0.00	0.00	0.000	0.733	88.1	32	54.5	86.3	1405	1	100.0	60
08/13/18	2:00 p	83.7	83.7	82.5	79	76.5	0.0	SSW	0.00	11.0	W	83.7	93.3	93.3	29.970	0.00	0.00	0.000	0.779	88.8	36	58.4	88.3	1405	1	100.0	60
08/13/18	3:00 p	85.8	85.8	83.7	76	77.4	0.0	SSW	0.00	4.0	SSE	85.8	96.9	96.9	29.947	0.00	0.00	0.000	0.867	90.5	32	56.6	90.0	1405	1	100.0	60
08/13/18	4:00 p	85.8	86.1	85.8	76	77.4	0.0	S	0.00	7.0	SSW	85.8	96.9	96.9	29.928	0.00	0.00	0.000	0.867	90.4	35	59.0	90.4	1405	1	100.0	60
08/13/18	5:00 p	85.6	85.9	85.6	75	76.8	0.0	WSW	0.00	10.0	WSW	85.6	96.0	96.0	29.912	0.00	0.00	0.000	0.858	92.7	34	60.2	93.3	1405	1	100.0	60
08/13/18	6:00 p	84.8	85.6	84.7	75	76.0	0.0	SSW	0.00	4.0	SSW	84.8	94.2	94.2	29.908	0.00	0.00	0.000	0.825	91.5	32	57.5	91.2	1405	1	100.0	60
08/13/18	7:00 p	83.2	84.7	83.1	79	76.0	0.0	SW	0.00	4.0	SW	83.2	91.9	91.9	29.911	0.00	0.00	0.000	0.758	92.6	35	61.0	93.4	1404	1	100.0	60
08/13/18	8:00 p	81.2	83.1	81.2	82	75.2	0.0	WSW	0.00	4.0	WSW	81.2	87.5	87.5	29.924	0.00	0.00	0.000	0.675	89.5	33	56.6	88.7	1405	1	100.0	60
08/13/18	9:00 p	78.7	81.2	78.7	87	74.5	0.0	---	0.00	0.0	---	78.7	83.6	83.6	29.952	0.00	0.00	0.000	0.571	90.4	34	58.2	90.2	1405	1	100.0	60
08/13/18	10:00 p	77.1	78.7	77.1	91	74.3	0.0	---	0.00	0.0	---	77.1	81.3	81.3	29.954	0.00	0.00	0.000	0.504	87.5	32	54.0	85.9	1405	1	100.0	60
08/13/18	11:00 p	76.1	77.1	76.1	84	70.9	0.0	SW	0.00	5.0	SW	76.1	79.3	79.3	29.945	0.00	0.00	0.000	0.462	88.6	34	56.6	87.5	1405	1	100.0	60
08/14/18	12:00 a	73.1	76.1	73.1	87	69.0	0.0	---	0.00	0.0	---	73.1	75.4	75.4	29.951	0.00	0.00	0.000	0.337	86.5	31	52.3	85.0	1406	1	100.0	60

TUESDAY			Temp	Hi	Low	Out	Dew	Wind	Wind	Wind	Hi	Hi	Wind	Heat	THW			Rain	Heat	Cool	In 	In	In 	In 	Wind	Wind	ISS 	Arc.
Date		Time	Out	Temp	Temp	Hum	Pt.	Speed	Dir	Run	Speed	Dir	Chill	Index	Index	Bar  	Rain	Rate	D-D 	D-D 	Temp	Hum	Dew	Heat	Samp	Tx 	Recept	Int.
08/14/18	1:00 a	70.9	73.1	70.9	90	67.8	0.0	---	0.00	0.0	---	70.9	73.1	73.1	29.945	0.00	0.00	0.000	0.246	86.4	34	54.7	85.5	1403	1	100.0	60
08/14/18	2:00 a	69.7	70.9	69.7	93	67.6	0.0	---	0.00	0.0	---	69.7	72.0	72.0	29.925	0.00	0.00	0.000	0.196	86.1	35	55.2	85.4	1405	1	100.0	60
08/14/18	3:00 a	69.1	69.7	69.1	94	67.3	0.0	---	0.00	0.0	---	69.1	71.4	71.4	29.922	0.00	0.00	0.000	0.171	85.7	35	54.9	85.0	1405	1	100.0	60
08/14/18	4:00 a	68.1	69.1	68.1	95	66.6	0.0	---	0.00	0.0	---	68.1	70.0	70.0	29.926	0.00	0.00	0.000	0.129	83.5	34	52.2	82.4	1405	1	100.0	60
08/14/18	5:00 a	67.1	68.1	67.1	96	65.9	0.0	---	0.00	0.0	---	67.1	68.8	68.8	29.943	0.00	0.00	0.000	0.087	83.9	35	53.3	83.2	1405	1	100.0	60
08/14/18	6:00 a	66.3	67.1	66.3	97	65.4	0.0	---	0.00	0.0	---	66.3	67.8	67.8	29.956	0.00	0.00	0.000	0.054	83.6	36	53.8	82.9	1404	1	100.0	60
08/14/18	7:00 a	65.8	66.3	65.7	97	64.9	0.0	---	0.00	0.0	---	65.8	67.2	67.2	29.974	0.00	0.00	0.000	0.033	83.2	37	54.2	82.5	1405	1	100.0	60
08/14/18	8:00 a	67.6	67.6	65.8	98	67.0	0.0	---	0.00	0.0	---	67.6	69.5	69.5	29.972	0.00	0.00	0.000	0.108	82.4	35	52.0	81.1	1405	1	100.0	60
08/14/18	9:00 a	71.5	71.5	67.6	93	69.4	0.0	W	0.00	4.0	ENE	71.5	74.0	74.0	29.974	0.00	0.00	0.000	0.271	83.2	36	53.5	82.3	1405	1	100.0	60
08/14/18	10:00 a	75.8	75.8	71.5	83	70.3	0.0	W	0.00	5.0	W	75.8	78.8	78.8	29.972	0.00	0.00	0.000	0.450	83.8	34	52.4	82.8	1405	1	100.0	60
08/14/18	11:00 a	78.8	78.8	75.8	75	70.2	0.0	SW	0.00	6.0	SW	78.8	81.7	81.7	29.977	0.00	0.00	0.000	0.575	86.4	35	55.5	85.7	1405	1	100.0	60
08/14/18	12:00 p	81.6	81.6	78.8	73	72.1	0.0	SSW	0.00	7.0	SW	81.6	86.2	86.2	29.968	0.00	0.00	0.000	0.692	83.6	36	53.8	82.9	1405	1	100.0	60
08/14/18	1:00 p	84.0	84.0	81.6	67	71.9	0.0	SSW	0.00	10.0	SSW	84.0	89.9	89.9	29.961	0.00	0.00	0.000	0.792	84.8	37	55.6	84.4	1405	1	100.0	60
08/14/18	2:00 p	85.9	85.9	84.0	64	72.3	0.0	SW	0.00	11.0	SW	85.9	92.8	92.8	29.946	0.00	0.00	0.000	0.871	85.3	38	56.8	85.1	1405	1	100.0	60
08/14/18	3:00 p	86.4	86.4	85.9	61	71.4	0.0	SSW	0.00	12.0	SW	86.4	92.7	92.7	29.928	0.00	0.00	0.000	0.892	87.6	34	55.8	86.3	1405	1	100.0	60
08/14/18	4:00 p	86.9	87.2	86.4	63	72.8	0.0	SSW	0.00	7.0	WNW	86.9	94.6	94.6	29.926	0.00	0.00	0.000	0.913	88.5	36	58.1	87.9	1405	1	100.0	60
08/14/18	5:00 p	85.1	86.9	84.9	70	74.2	0.0	SSW	0.00	10.0	SSW	85.1	93.1	93.1	29.911	0.00	0.00	0.000	0.837	89.2	33	56.3	88.1	1405	1	100.0	60
08/14/18	6:00 p	86.0	86.0	85.1	67	73.8	0.0	SSW	0.00	6.0	SSW	86.0	94.2	94.2	29.916	0.00	0.00	0.000	0.875	88.4	34	56.5	87.2	1405	1	100.0	60
08/14/18	7:00 p	84.7	86.1	84.7	70	73.8	0.0	SW	0.00	6.0	S	84.7	92.3	92.3	29.920	0.00	0.00	0.000	0.821	89.3	32	55.6	88.1	1404	1	100.0	60
08/14/18	8:00 p	82.3	84.7	82.3	74	73.2	0.0	SSE	0.00	5.0	WSW	82.3	88.0	88.0	29.938	0.00	0.00	0.000	0.721	86.7	37	57.3	86.4	1405	1	100.0	60
08/14/18	9:00 p	79.5	82.3	79.5	83	73.9	0.0	SSW	0.00	4.0	SSW	79.5	84.2	84.2	29.951	0.00	0.00	0.000	0.604	86.8	37	57.4	86.5	1405	1	100.0	60
08/14/18	10:00 p	77.2	79.5	77.2	89	73.7	0.0	SW	0.00	4.0	SW	77.2	81.3	81.3	29.962	0.00	0.00	0.000	0.508	84.2	36	54.4	83.7	1405	1	100.0	60
08/14/18	11:00 p	75.5	77.2	75.4	93	73.3	0.0	---	0.00	0.0	---	75.5	79.2	79.2	29.971	0.00	0.00	0.000	0.438	84.3	37	55.2	84.0	1405	1	100.0	60
08/15/18	12:00 a	74.2	75.4	74.2	95	72.7	0.0	---	0.00	0.0	---	74.2	77.3	77.3	29.981	0.00	0.00	0.000	0.383	82.1	36	52.5	80.9	1405	1	100.0	60

WEDNESDAY		Temp	Hi	Low	Out	Dew	Wind	Wind	Wind	Hi	Hi	Wind	Heat	THW			Rain	Heat	Cool	In 	In	In 	In 	Wind	Wind	ISS 	Arc.
Date		Time	Out	Temp	Temp	Hum	Pt.	Speed	Dir	Run	Speed	Dir	Chill	Index	Index	Bar  	Rain	Rate	D-D 	D-D 	Temp	Hum	Dew	Heat	Samp	Tx 	Recept	Int.
08/15/18	1:00 a	73.2	74.2	73.2	97	72.3	0.0	SW	0.00	4.0	SW	73.2	76.3	76.3	29.982	0.00	0.00	0.000	0.342	82.1	38	54.0	81.2	1404	1	100.0	60
08/15/18	2:00 a	72.2	73.2	72.2	97	71.3	0.0	---	0.00	0.0	---	72.2	75.3	75.3	29.980	0.00	0.00	0.000	0.300	82.0	38	53.9	81.1	1405	1	100.0	60
08/15/18	3:00 a	71.8	72.2	71.8	98	71.2	0.0	---	0.00	0.0	---	71.8	75.1	75.1	29.975	0.00	0.00	0.000	0.283	80.4	37	51.7	79.1	1405	1	100.0	60
08/15/18	4:00 a	71.5	71.9	71.5	97	70.6	0.0	---	0.00	0.0	---	71.5	74.6	74.6	29.972	0.00	0.00	0.000	0.271	80.1	39	52.9	79.0	1405	1	100.0	60
08/15/18	5:00 a	70.8	71.5	70.8	98	70.2	0.0	---	0.00	0.0	---	70.8	74.1	74.1	29.971	0.00	0.00	0.000	0.242	80.1	39	52.9	79.0	1405	1	100.0	60
08/15/18	6:00 a	70.3	70.8	70.3	98	69.7	0.0	---	0.00	0.0	---	70.3	73.5	73.5	29.975	0.00	0.00	0.000	0.221	79.9	40	53.4	78.9	1405	1	100.0	60

			Temp	Hi	Low	Out	Dew	Wind	Wind	Wind	Hi	Hi	Wind	Heat	THW			Rain	Heat	Cool	In 	In	In 	In 	Wind	Wind	ISS 	Arc.
Date		Time	Out	Temp	Temp	Hum	Pt.	Speed	Dir	Run	Speed	Dir	Chill	Index	Index	Bar  	Rain	Rate	D-D 	D-D 	Temp	Hum	Dew	Heat	Samp	Tx 	Recept	Int.